TAF Text Data
IDs:
Format:
Raw Decoded Include METAR

Data at: 1345 UTC 17 Sep 2019

Region: TOP
KATL 171330Z 1714/1818 33006KT P6SM SKC
  FM171800 32008KT P6SM SCT070 SCT250
  FM180700 01006KT P6SM SCT050 SCT250
  FM181000 06010KT P6SM FEW025 SCT050
  FM181500 09012G18KT P6SM SCT025 SCT050


KBOS 171121Z 1712/1818 35008KT P6SM SKC
  FM171800 07012KT P6SM SCT040
  FM180800 04010KT P6SM VCSH BKN030
  FM181300 04012KT P6SM SCT035


KBWI 171141Z 1712/1818 04010KT P6SM SCT015 BKN070
  FM171600 07008KT P6SM BKN080
  FM172000 06007KT P6SM SCT100
  FM180200 VRB03KT P6SM SKC


KCLE 171132Z 1712/1818 04006KT P6SM SCT003 BKN015
  TEMPO 1712/1714 3SM BR OVC003
  FM171430 05006KT P6SM SCT015 BKN025
  FM171700 02010KT P6SM SCT035
  FM172100 01012G22KT P6SM FEW050
  FM172300 04010KT P6SM FEW250


KCLT 171137Z 1712/1818 VRB03KT P6SM SCT090 SCT250
  FM171800 07005KT P6SM SCT060 SCT250
  FM172200 07008KT P6SM SCT050 BKN100
  FM180600 07008KT P6SM SCT020 BKN040
  FM180900 06008KT P6SM BKN015


KCVG 171132Z 1712/1818 05007KT P6SM SCT250
  FM171500 05008KT P6SM FEW045 BKN250
  FM172300 04007KT P6SM FEW250
  FM181400 07007KT P6SM FEW040 FEW250


KDCA 171141Z 1712/1818 04012KT P6SM SCT015 BKN050
  TEMPO 1712/1715 BKN015
  FM171600 05008KT P6SM BKN050
  FM172200 05007KT P6SM SCT100
  FM180200 VRB03KT P6SM SKC


KDEN 171133Z 1712/1818 19011KT P6SM BKN220
  FM171400 22010KT P6SM FEW150 BKN220
  FM172000 24014KT P6SM FEW120 SCT220
  FM172300 30012G25KT P6SM FEW130 SCT220
  FM180600 23010KT P6SM FEW120
  FM180900 08007KT P6SM FEW100
  FM181600 14007KT P6SM SCT100


KDFW 171120Z 1712/1818 12008KT P6SM SCT060

KDTW 171150Z 1712/1818 03005KT 6SM BR OVC010
  FM171500 05006KT P6SM BKN028
  FM171800 07007KT P6SM SCT250
  FM180000 VRB03KT P6SM SKC


KEWR 171120Z 1712/1818 02010KT P6SM SKC
  FM171700 03010G16KT P6SM SKC
  FM172200 06006KT P6SM SKC
  FM180900 03005KT P6SM FEW050
  FM181500 04009KT P6SM SCT050


KFLL 171130Z 1712/1818 31005KT P6SM FEW020 SCT050
  FM171400 34008KT P6SM SCT030 SCT250
  FM171800 04012KT P6SM SCT035
  FM180000 05008KT P6SM FEW030
  FM180600 05010KT P6SM FEW030 SCT250


KIAD 171147Z 1712/1818 04008KT P6SM SCT015 BKN050
  TEMPO 1712/1715 BKN015
  FM172200 04006KT P6SM SCT100
  FM180200 VRB03KT P6SM SKC


KIAH 171326Z 1713/1818 06007KT 5SM BR VCSH BKN008 BKN035
  TEMPO 1713/1715 2SM SHRA BR BKN015 BKN040
  FM171500 10009KT P6SM VCTS SCT025CB BKN045
  TEMPO 1715/1718 4SM TSRA BKN025CB
  FM171800 12014KT P6SM VCTS SCT025 BKN035CB
  FM180000 11010KT P6SM VCSH BKN025 OVC045
  FM180600 09007KT 5SM SHRA BR BKN025 OVC035
  FM181200 05009KT 4SM TSRA BR BKN015CB OVC025


KJFK 171120Z 1712/1818 03006KT P6SM FEW050
  FM171300 03010KT P6SM SKC
  FM171600 06009G16KT P6SM SKC
  FM172200 08008KT P6SM SKC
  FM180900 04006KT P6SM FEW050
  FM181300 04011KT P6SM SCT050


KLAS 171120Z 1712/1818 20015G25KT P6SM SKC
  FM171400 21010KT P6SM FEW250
  FM171600 34010KT P6SM FEW250
  FM171800 20008KT P6SM FEW250


KLAX 171127Z 1712/1818 08004KT P6SM BKN015
  FM171600 25006KT P6SM SCT020
  FM172100 26012KT P6SM SKC
  FM180300 26007KT P6SM SKC
  FM180700 VRB03KT P6SM SKC
  FM180900 VRB03KT P6SM BKN015
  FM181600 23005KT P6SM SCT020


KLGA 171120Z 1712/1818 03008KT P6SM SKC
  FM171300 04011KT P6SM SKC
  FM172300 07008KT P6SM SKC
  FM180800 05005KT P6SM FEW050
  FM181400 05011KT P6SM SCT050


KMCO 171125Z 1712/1818 31004KT P6SM FEW020
  FM171400 33007KT P6SM FEW030
  FM171900 36011G18KT P6SM SKC
  FM180000 02008KT P6SM SKC
  FM180800 30004KT P6SM SKC
  FM181400 03005KT P6SM SCT035


KMDW 171130Z 1712/1818 10005KT 5SM BR OVC007
  FM171400 11006KT P6SM SCT008 BKN250
  TEMPO 1714/1716 6SM BR BKN008 BKN250
  FM171900 08009KT P6SM SCT250
  FM180800 16007KT P6SM BKN250


KMEM 171133Z 1712/1818 VRB03KT P6SM SKC
  FM171700 34005KT P6SM FEW060
  FM180100 06003KT P6SM SKC


KMIA 171130Z 1712/1818 34005KT P6SM FEW015 SCT250
  FM171400 34008KT P6SM SCT030 SCT250
  FM171800 02010KT P6SM SCT035
  FM180200 04006KT P6SM FEW030
  FM181500 03010KT P6SM FEW030 SCT250


KMSP 171137Z 1712/1818 14008KT P6SM BKN200 WS020/20035KT
  FM171600 16013G23KT P6SM SCT200
  FM180500 16012G20KT P6SM BKN180 WS020/19040KT
  FM180800 17011G20KT 6SM BR VCTS SCT030 BKN060CB WS015/21040KT
  TEMPO 1808/1812 3SM -TSRA BR BKN050CB OVC100
  FM181400 18011G22KT P6SM BKN035


KORD 171130Z 1712/1818 10005KT 5SM BR OVC006
  FM171400 11006KT P6SM SCT008 BKN250
  TEMPO 1714/1716 6SM BR BKN008 BKN250
  FM171900 09009KT P6SM SCT250
  FM180800 16007KT P6SM BKN250


KPDX 171130Z 1712/1812 15007KT P6SM BKN050 OVC070
  FM171300 16012KT P6SM -RA SCT025 OVC050
  FM171500 16014G24KT 4SM RA BR BKN018 OVC035
  FM171900 19012G22KT P6SM -RA SCT015 BKN025 OVC040
  FM172100 19011KT P6SM -SHRA SCT015 BKN025 OVC050
  FM180000 18008KT P6SM -SHRA SCT020 BKN035 OVC060


KPHL 171134Z 1712/1818 07008KT P6SM BKN040
  FM171900 04006KT P6SM FEW250
  FM180000 08004KT P6SM FEW150


KPHX 171124Z 1712/1818 09005KT P6SM FEW070 FEW140
  FM171900 28007KT P6SM FEW090 FEW140
  FM180500 VRB06KT P6SM SCT100
  FM181200 11006KT P6SM FEW090


KPIT 171120Z 1712/1818 06005KT P6SM SCT008
  FM171400 06008KT P6SM SCT040


KSAN 171124Z 1712/1818 VRB04KT P6SM SCT014
  TEMPO 1712/1716 BKN013
  FM171600 27005KT P6SM SCT015
  FM172000 27009KT P6SM SKC
  FM180200 VRB04KT P6SM SCT015
  FM180900 VRB04KT P6SM BKN015
  FM181600 VRB05KT P6SM SCT015


KSEA 171142Z 1712/1818 15011KT P6SM OVC050
  FM171400 14012KT P6SM -RA SCT020 OVC035
  FM172000 17014G22KT P6SM -SHRA BKN022 OVC030
  FM180200 20010KT P6SM -SHRA BKN030 OVC050
  FM180600 17006KT P6SM -SHRA BKN015 OVC025
  FM181100 VRB05KT 6SM BR VCSH OVC012


KSFO 171120Z 1712/1818 28007KT P6SM FEW250
  FM171800 28011KT P6SM FEW250
  FM172100 28017G25KT P6SM FEW015 SCT250
  FM180300 28012KT P6SM FEW015 SCT100 OVC200
  FM180800 26005KT P6SM SCT015 OVC080
  FM181100 VRB04KT P6SM FEW020 BKN030 OVC050
  FM181300 23006KT P6SM VCSH BKN025 OVC040


KSLC 171217Z 1712/1818 33012KT P6SM -SHRA SCT040 BKN080
  FM171400 32007KT P6SM SCT080 SCT120
  FM180400 15007KT P6SM SCT120


KSTL 171130Z 1712/1818 09006KT P6SM FEW045 SCT250

KTPA 171124Z 1712/1818 VRB03KT P6SM SKC
  FM171500 31010KT P6SM FEW050 FEW250
  FM180100 03003KT P6SM FEW250